Menalon — SXCH — position and weather

sailwx.info

Track history (hours):
 
Tides and Currents Weather Stations Pressure Air Temp Water Temp Dewpoint Dewpoint Depression Visibility Wind Speed Wind Dir Waves Ship Positions

Menalon

Last reported at 2015-Jan-27 11:33 UTC. Time now 2015-Jan-27 12:32 UTC.
Position N 37°57' E 023°35'.

Length 83 m; draft 4 m.

Type: Ship (hazmat cat C). MMSI: 239741000.

Date/timePositionNaut miles runAvg speedWind from/ knotsBaromVisibWave heightAir tempDewpointWater temp
2015-Jan-27 11:33N 37°57' E 023°35'0 0.0
2015-Jan-27 10:33N 37°57' E 023°35'0 0.1
2015-Jan-27 09:33N 37°57' E 023°35'0 0.0
2015-Jan-27 08:33N 37°57' E 023°35'0 0.0
2015-Jan-27 07:33N 37°57' E 023°35'0 0.1
2015-Jan-27 06:33N 37°57' E 023°35'0 0.1
2015-Jan-27 05:33N 37°57' E 023°35'0 0.0
2015-Jan-27 04:33N 37°57' E 023°35'0 0.0
2015-Jan-27 03:33N 37°57' E 023°35'0 0.0
2015-Jan-27 02:33N 37°57' E 023°35'0 0.0
2015-Jan-27 01:33N 37°57' E 023°35'0 0.0
2015-Jan-27 00:33N 37°57' E 023°35'0 0.0
2015-Jan-26 23:33N 37°57' E 023°35'0 0.0
2015-Jan-26 22:33N 37°57' E 023°35'0 0.0
2015-Jan-26 21:33N 37°57' E 023°35'0 0.0
2015-Jan-26 20:33N 37°57' E 023°35'0 0.0
2015-Jan-26 19:33N 37°57' E 023°35'0 0.0
2015-Jan-26 18:33N 37°57' E 023°35'0 0.0
2015-Jan-26 17:33N 37°57' E 023°35'0 0.1
2015-Jan-26 16:33N 37°57' E 023°35'0 0.1
2015-Jan-26 15:33N 37°57' E 023°35'0 0.1
2015-Jan-26 14:33N 37°57' E 023°35'0 0.0
2015-Jan-26 13:33N 37°57' E 023°35'0 0.0
2015-Jan-26 12:33N 37°57' E 023°35'0 0.0
2015-Jan-26 11:33N 37°57' E 023°35'5 5.5
2015-Jan-26 10:33N 37°52' E 023°32'0 0.1
2015-Jan-26 09:33N 37°52' E 023°32'0 0.0
2015-Jan-26 08:33N 37°52' E 023°32'0 0.0
2015-Jan-26 07:33N 37°52' E 023°32'0 0.0
2015-Jan-26 06:33N 37°52' E 023°32'6 5.5
2015-Jan-26 05:33N 37°57' E 023°35'0 0.1
2015-Jan-26 04:33N 37°57' E 023°35'0 0.1
2015-Jan-26 03:33N 37°57' E 023°35'0 0.1
2015-Jan-26 02:33N 37°57' E 023°35'0 0.0
2015-Jan-26 01:33N 37°57' E 023°35'0 0.1
2015-Jan-26 00:33N 37°57' E 023°35'0 0.0
2015-Jan-25 23:33N 37°57' E 023°35'0 0.0
2015-Jan-25 22:33N 37°57' E 023°35'0 0.1
2015-Jan-25 21:33N 37°57' E 023°35'0 0.0
2015-Jan-25 20:33N 37°57' E 023°35'0 0.1
2015-Jan-25 19:33N 37°57' E 023°35'0 0.0
2015-Jan-25 18:32N 37°57' E 023°35'0 0.0
2015-Jan-25 17:33N 37°57' E 023°35'0 0.0
2015-Jan-25 16:32N 37°57' E 023°35'0 0.0
2015-Jan-25 15:31N 37°57' E 023°35'0 0.0
2015-Jan-25 14:27N 37°57' E 023°35'0 0.0
2015-Jan-25 13:33N 37°57' E 023°35'0 0.0
2015-Jan-25 12:33N 37°57' E 023°35'0 0.0
2015-Jan-25 11:33N 37°57' E 023°35'0 0.1
2015-Jan-25 10:30N 37°57' E 023°35'0 0.1
2015-Jan-25 09:33N 37°57' E 023°35'0 0.0
2015-Jan-25 08:33N 37°57' E 023°35'0 0.0
2015-Jan-25 07:31N 37°57' E 023°35'0 0.0
2015-Jan-25 06:33N 37°57' E 023°35'0 0.0
2015-Jan-25 05:33N 37°57' E 023°35'0 0.0
2015-Jan-25 04:33N 37°57' E 023°35'0 0.0
2015-Jan-25 03:33N 37°57' E 023°35'0 0.0
2015-Jan-25 02:33N 37°57' E 023°35'0 0.0
2015-Jan-25 01:33N 37°57' E 023°35'0 0.0
2015-Jan-25 00:33N 37°57' E 023°35'0 0.0
2015-Jan-24 23:33N 37°57' E 023°35'0 0.0
2015-Jan-24 22:33N 37°57' E 023°35'0 0.0
2015-Jan-24 21:33N 37°57' E 023°35'0 0.0
2015-Jan-24 20:33N 37°57' E 023°35'0 0.0
2015-Jan-24 19:33N 37°57' E 023°35'0 0.0
2015-Jan-24 18:33N 37°57' E 023°35'0 0.1
2015-Jan-24 17:33N 37°57' E 023°35'0 0.1
2015-Jan-24 16:33N 37°57' E 023°35'0 0.0
2015-Jan-24 15:33N 37°57' E 023°35'0 0.1
2015-Jan-24 14:33N 37°57' E 023°35'0 0.0
2015-Jan-24 13:33N 37°57' E 023°35'0 0.0
2015-Jan-24 12:33N 37°57' E 023°35'4 4.3
2015-Jan-24 11:33N 38°01' E 023°32'0 0.1
2015-Jan-24 10:27N 38°01' E 023°32'0 0.0
2015-Jan-24 09:33N 38°01' E 023°32'0 0.0
2015-Jan-24 08:28N 38°01' E 023°32'0 0.1
2015-Jan-24 07:32N 38°01' E 023°32'2 1.6
2015-Jan-24 06:33N 37°60' E 023°33'2 2.5
2015-Jan-24 05:33N 37°57' E 023°34'0 0.0
2015-Jan-24 04:33N 37°57' E 023°34'0 0.0
2015-Jan-24 03:33N 37°57' E 023°34'0 0.0
2015-Jan-24 02:33N 37°57' E 023°34'0 0.1
2015-Jan-24 01:33N 37°57' E 023°34'0 0.1
2015-Jan-24 00:33N 37°57' E 023°34'1 1.4
2015-Jan-23 23:33N 37°57' E 023°36'0 0.0
2015-Jan-23 22:33N 37°57' E 023°36'0 0.0
2015-Jan-23 21:33N 37°57' E 023°36'0 0.0
2015-Jan-23 20:33N 37°57' E 023°36'1 0.9
2015-Jan-23 19:33N 37°57' E 023°35'0 0.1
2015-Jan-23 18:33N 37°57' E 023°35'0 0.0
2015-Jan-23 17:33N 37°57' E 023°35'0 0.0
2015-Jan-23 16:33N 37°57' E 023°35'0 0.1
2015-Jan-23 15:33N 37°57' E 023°35'0 0.0
2015-Jan-23 14:33N 37°57' E 023°35'0 0.0
2015-Jan-23 13:33N 37°57' E 023°35'0 0.0
2015-Jan-23 12:33N 37°57' E 023°35'0 0.0
2015-Jan-23 11:33N 37°57' E 023°35'0 0.0
2015-Jan-23 10:33N 37°57' E 023°35'0 0.0
2015-Jan-23 09:33N 37°57' E 023°35'0 0.0
2015-Jan-23 08:33N 37°57' E 023°35'0 0.0
2015-Jan-23 07:33N 37°57' E 023°35'0 0.0
2015-Jan-23 06:33N 37°57' E 023°35'0 0.0
2015-Jan-23 05:34N 37°57' E 023°35'0 0.0
2015-Jan-23 04:33N 37°57' E 023°35'0 0.0
2015-Jan-23 03:33N 37°57' E 023°35'0 0.1
2015-Jan-23 02:33N 37°57' E 023°34'7 6.8
2015-Jan-23 01:33N 37°51' E 023°31'1 1.0
2015-Jan-23 00:33N 37°50' E 023°31'0 0.0
2015-Jan-22 23:33N 37°50' E 023°31'1 1.2
2015-Jan-22 22:33N 37°51' E 023°29'1 1.0
2015-Jan-22 21:33N 37°50' E 023°30'0 0.2
2015-Jan-22 20:33N 37°50' E 023°31'0 0.2
2015-Jan-22 19:33N 37°50' E 023°31'0 0.1
2015-Jan-22 18:33N 37°50' E 023°31'8 7.5
2015-Jan-22 17:33N 37°57' E 023°35'1 0.5
2015-Jan-22 16:33N 37°57' E 023°35'0 0.0
2015-Jan-22 15:33N 37°57' E 023°34'0 0.0
2015-Jan-22 14:33N 37°57' E 023°35'0 0.0
2015-Jan-22 13:33N 37°57' E 023°35'0 0.0
2015-Jan-22 12:33N 37°57' E 023°35'0 0.0
2015-Jan-22 11:33N 37°57' E 023°35'0 0.0
2015-Jan-22 10:33N 37°57' E 023°35'0 0.0
2015-Jan-22 09:33N 37°57' E 023°35'0 0.0
2015-Jan-22 08:33N 37°57' E 023°35'5 4.9
2015-Jan-22 07:33N 37°53' E 023°31'10 8.8
2015-Jan-22 06:28N 37°53' E 023°19'0 0.0
2015-Jan-21 11:06N 37°53' E 023°19'610.5
2015-Jan-21 10:33N 37°52' E 023°26'9 9.3
2015-Jan-21 09:33N 37°57' E 023°36'0 0.2
2015-Jan-21 08:33N 37°57' E 023°36'0 0.0
2015-Jan-21 07:33N 37°57' E 023°36'1 0.8
2015-Jan-21 06:33N 37°57' E 023°35'0 0.1
2015-Jan-21 05:33N 37°57' E 023°35'0 0.0
2015-Jan-21 04:33N 37°57' E 023°35'0 0.0
2015-Jan-21 03:33N 37°57' E 023°35'0 0.0
2015-Jan-21 02:33N 37°57' E 023°35'0 0.0
2015-Jan-21 01:33N 37°57' E 023°35'0 0.0
2015-Jan-21 00:33N 37°57' E 023°35'0 0.0
2015-Jan-20 23:33N 37°57' E 023°35'0 0.0
2015-Jan-20 22:33N 37°57' E 023°35'0 0.0
2015-Jan-20 21:33N 37°57' E 023°35'0 0.0
2015-Jan-20 20:33N 37°57' E 023°35'0 0.0
2015-Jan-20 19:33N 37°57' E 023°35'0 0.0
2015-Jan-20 18:33N 37°57' E 023°35'0 0.5
2015-Jan-20 17:33N 37°57' E 023°35'0 0.0
2015-Jan-20 16:33N 37°57' E 023°35'0 0.1
2015-Jan-20 15:33N 37°57' E 023°35'0 0.1
2015-Jan-20 14:33N 37°57' E 023°35'0 0.0
2015-Jan-20 13:33N 37°57' E 023°35'0 0.0
2015-Jan-20 12:33N 37°57' E 023°35'0 0.0
2015-Jan-20 11:33N 37°57' E 023°35'0 0.0
2015-Jan-20 10:33N 37°57' E 023°35'0 0.0
2015-Jan-20 09:33N 37°57' E 023°35'0 0.0
2015-Jan-20 08:33N 37°57' E 023°35'0 0.0
2015-Jan-20 07:33N 37°57' E 023°35'0 0.3
2015-Jan-20 06:33N 37°57' E 023°35'0 0.4
2015-Jan-20 05:33N 37°57' E 023°35'0 0.0
2015-Jan-20 04:33N 37°57' E 023°35'0 0.0
2015-Jan-20 03:33N 37°57' E 023°35'0 0.0
2015-Jan-20 02:33N 37°57' E 023°35'0 0.0
2015-Jan-20 01:33N 37°57' E 023°35'0 0.0
2015-Jan-20 00:34N 37°57' E 023°35'0 0.0
2015-Jan-19 23:33N 37°57' E 023°35'0 0.0
2015-Jan-19 22:33N 37°57' E 023°35'0 0.0
2015-Jan-19 21:33N 37°57' E 023°35'0 0.0
2015-Jan-19 20:33N 37°57' E 023°35'0 0.0
2015-Jan-19 19:33N 37°57' E 023°35'0 0.0
2015-Jan-19 18:33N 37°57' E 023°35'0 0.0
2015-Jan-19 17:33N 37°57' E 023°35'0 0.0
2015-Jan-19 16:33N 37°57' E 023°35'0 0.0
2015-Jan-19 15:33N 37°57' E 023°35'0 0.0
2015-Jan-19 14:33N 37°57' E 023°35'0 0.0
2015-Jan-19 13:33N 37°57' E 023°35'0 0.0
2015-Jan-19 12:33N 37°57' E 023°35'0 0.0
2015-Jan-19 11:33N 37°57' E 023°35'2 2.2
2015-Jan-19 10:33N 37°55' E 023°34'5 4.7
2015-Jan-19 09:33N 37°52' E 023°30'0 0.0
2015-Jan-19 08:33N 37°52' E 023°30'0 0.0
2015-Jan-19 07:33N 37°52' E 023°30'0 0.4
2015-Jan-19 06:33N 37°52' E 023°30'2 1.5
2015-Jan-19 05:33N 37°51' E 023°31'0 0.0
2015-Jan-19 04:32N 37°51' E 023°31'0 0.0
2015-Jan-19 03:33N 37°51' E 023°31'0 0.0
2015-Jan-19 02:28N 37°51' E 023°31'0 0.0
2015-Jan-19 01:31N 37°51' E 023°31'0 0.0
2015-Jan-18 23:31N 37°51' E 023°31'0 0.4
2015-Jan-18 22:33N 37°51' E 023°31'7 6.8
2015-Jan-18 21:33N 37°57' E 023°35'0 0.1
2015-Jan-18 20:32N 37°57' E 023°35'0 0.0
2015-Jan-18 19:28N 37°57' E 023°35'0 0.0
2015-Jan-18 18:30N 37°57' E 023°35'0 0.0
2015-Jan-18 17:33N 37°57' E 023°35'0 0.0
2015-Jan-18 16:32N 37°57' E 023°35'0 0.0
2015-Jan-18 15:33N 37°57' E 023°35'0 0.0
2015-Jan-18 14:33N 37°57' E 023°35'0 0.0
2015-Jan-18 13:33N 37°57' E 023°35'0 0.0
2015-Jan-18 12:33N 37°57' E 023°35'0 0.0
2015-Jan-18 11:32N 37°57' E 023°35'0 0.0
2015-Jan-18 10:31N 37°57' E 023°35'0 0.0
2015-Jan-18 09:32N 37°57' E 023°35'0 0.0
2015-Jan-18 08:33N 37°57' E 023°35'0 0.0
2015-Jan-18 07:33N 37°57' E 023°35'0 0.0
2015-Jan-18 06:28N 37°57' E 023°35'0 0.0
2015-Jan-18 05:28N 37°57' E 023°35'0 0.0
2015-Jan-18 04:33N 37°57' E 023°35'0 0.0
2015-Jan-18 03:33N 37°57' E 023°35'0 0.0
2015-Jan-18 02:33N 37°57' E 023°35'0 0.0
2015-Jan-18 01:33N 37°57' E 023°35'0 0.0
2015-Jan-18 00:33N 37°57' E 023°35'0 0.0
2015-Jan-17 23:33N 37°57' E 023°35'0 0.0
2015-Jan-17 22:33N 37°57' E 023°35'0 0.0
2015-Jan-17 21:33N 37°57' E 023°35'0 0.0
2015-Jan-17 20:33N 37°57' E 023°35'0 0.0
2015-Jan-17 19:33N 37°57' E 023°35'0 0.0
2015-Jan-17 18:33N 37°57' E 023°35'0 0.0
2015-Jan-17 17:33N 37°57' E 023°35'0 0.0
2015-Jan-17 16:33N 37°57' E 023°35'0 0.0
2015-Jan-17 15:33N 37°57' E 023°35'0 0.0
2015-Jan-17 14:33N 37°57' E 023°35'0 0.0
2015-Jan-17 13:33N 37°57' E 023°35'0 0.0
2015-Jan-17 12:33N 37°57' E 023°35'0 0.0
2015-Jan-17 11:33N 37°57' E 023°35'  
Track history (hours):
 
Tides and Currents Weather Stations Pressure Air Temp Water Temp Dewpoint Dewpoint Depression Visibility Wind Speed Wind Dir Waves Ship Positions

Menalon

Last reported at 2015-Jan-27 11:33 UTC. Time now 2015-Jan-27 12:32 UTC.
Position N 37°57' E 023°35'.

Length 83 m; draft 4 m.

Type: Ship (hazmat cat C). MMSI: 239741000.

Date/timePositionNaut miles runAvg speedWind from/ knotsBaromVisibWave heightAir tempDewpointWater temp
2015-Jan-27 11:33N 37°57' E 023°35'0 0.0
2015-Jan-27 10:33N 37°57' E 023°35'0 0.1
2015-Jan-27 09:33N 37°57' E 023°35'0 0.0
2015-Jan-27 08:33N 37°57' E 023°35'0 0.0
2015-Jan-27 07:33N 37°57' E 023°35'0 0.1
2015-Jan-27 06:33N 37°57' E 023°35'0 0.1
2015-Jan-27 05:33N 37°57' E 023°35'0 0.0
2015-Jan-27 04:33N 37°57' E 023°35'0 0.0
2015-Jan-27 03:33N 37°57' E 023°35'0 0.0
2015-Jan-27 02:33N 37°57' E 023°35'0 0.0
2015-Jan-27 01:33N 37°57' E 023°35'0 0.0
2015-Jan-27 00:33N 37°57' E 023°35'0 0.0
2015-Jan-26 23:33N 37°57' E 023°35'0 0.0
2015-Jan-26 22:33N 37°57' E 023°35'0 0.0
2015-Jan-26 21:33N 37°57' E 023°35'0 0.0
2015-Jan-26 20:33N 37°57' E 023°35'0 0.0
2015-Jan-26 19:33N 37°57' E 023°35'0 0.0
2015-Jan-26 18:33N 37°57' E 023°35'0 0.0
2015-Jan-26 17:33N 37°57' E 023°35'0 0.1
2015-Jan-26 16:33N 37°57' E 023°35'0 0.1
2015-Jan-26 15:33N 37°57' E 023°35'0 0.1
2015-Jan-26 14:33N 37°57' E 023°35'0 0.0
2015-Jan-26 13:33N 37°57' E 023°35'0 0.0
2015-Jan-26 12:33N 37°57' E 023°35'0 0.0
2015-Jan-26 11:33N 37°57' E 023°35'5 5.5
2015-Jan-26 10:33N 37°52' E 023°32'0 0.1
2015-Jan-26 09:33N 37°52' E 023°32'0 0.0
2015-Jan-26 08:33N 37°52' E 023°32'0 0.0
2015-Jan-26 07:33N 37°52' E 023°32'0 0.0
2015-Jan-26 06:33N 37°52' E 023°32'6 5.5
2015-Jan-26 05:33N 37°57' E 023°35'0 0.1
2015-Jan-26 04:33N 37°57' E 023°35'0 0.1
2015-Jan-26 03:33N 37°57' E 023°35'0 0.1
2015-Jan-26 02:33N 37°57' E 023°35'0 0.0
2015-Jan-26 01:33N 37°57' E 023°35'0 0.1
2015-Jan-26 00:33N 37°57' E 023°35'0 0.0
2015-Jan-25 23:33N 37°57' E 023°35'0 0.0
2015-Jan-25 22:33N 37°57' E 023°35'0 0.1
2015-Jan-25 21:33N 37°57' E 023°35'0 0.0
2015-Jan-25 20:33N 37°57' E 023°35'0 0.1
2015-Jan-25 19:33N 37°57' E 023°35'0 0.0
2015-Jan-25 18:32N 37°57' E 023°35'0 0.0
2015-Jan-25 17:33N 37°57' E 023°35'0 0.0
2015-Jan-25 16:32N 37°57' E 023°35'0 0.0
2015-Jan-25 15:31N 37°57' E 023°35'0 0.0
2015-Jan-25 14:27N 37°57' E 023°35'0 0.0
2015-Jan-25 13:33N 37°57' E 023°35'0 0.0
2015-Jan-25 12:33N 37°57' E 023°35'0 0.0
2015-Jan-25 11:33N 37°57' E 023°35'0 0.1
2015-Jan-25 10:30N 37°57' E 023°35'0 0.1
2015-Jan-25 09:33N 37°57' E 023°35'0 0.0
2015-Jan-25 08:33N 37°57' E 023°35'0 0.0
2015-Jan-25 07:31N 37°57' E 023°35'0 0.0
2015-Jan-25 06:33N 37°57' E 023°35'0 0.0
2015-Jan-25 05:33N 37°57' E 023°35'0 0.0
2015-Jan-25 04:33N 37°57' E 023°35'0 0.0
2015-Jan-25 03:33N 37°57' E 023°35'0 0.0
2015-Jan-25 02:33N 37°57' E 023°35'0 0.0
2015-Jan-25 01:33N 37°57' E 023°35'0 0.0
2015-Jan-25 00:33N 37°57' E 023°35'0 0.0
2015-Jan-24 23:33N 37°57' E 023°35'0 0.0
2015-Jan-24 22:33N 37°57' E 023°35'0 0.0
2015-Jan-24 21:33N 37°57' E 023°35'0 0.0
2015-Jan-24 20:33N 37°57' E 023°35'0 0.0
2015-Jan-24 19:33N 37°57' E 023°35'0 0.0
2015-Jan-24 18:33N 37°57' E 023°35'0 0.1
2015-Jan-24 17:33N 37°57' E 023°35'0 0.1
2015-Jan-24 16:33N 37°57' E 023°35'0 0.0
2015-Jan-24 15:33N 37°57' E 023°35'0 0.1
2015-Jan-24 14:33N 37°57' E 023°35'0 0.0
2015-Jan-24 13:33N 37°57' E 023°35'0 0.0
2015-Jan-24 12:33N 37°57' E 023°35'4 4.3
2015-Jan-24 11:33N 38°01' E 023°32'0 0.1
2015-Jan-24 10:27N 38°01' E 023°32'0 0.0
2015-Jan-24 09:33N 38°01' E 023°32'0 0.0
2015-Jan-24 08:28N 38°01' E 023°32'0 0.1
2015-Jan-24 07:32N 38°01' E 023°32'2 1.6
2015-Jan-24 06:33N 37°60' E 023°33'2 2.5
2015-Jan-24 05:33N 37°57' E 023°34'0 0.0
2015-Jan-24 04:33N 37°57' E 023°34'0 0.0
2015-Jan-24 03:33N 37°57' E 023°34'0 0.0
2015-Jan-24 02:33N 37°57' E 023°34'0 0.1
2015-Jan-24 01:33N 37°57' E 023°34'0 0.1
2015-Jan-24 00:33N 37°57' E 023°34'1 1.4
2015-Jan-23 23:33N 37°57' E 023°36'0 0.0
2015-Jan-23 22:33N 37°57' E 023°36'0 0.0
2015-Jan-23 21:33N 37°57' E 023°36'0 0.0
2015-Jan-23 20:33N 37°57' E 023°36'1 0.9
2015-Jan-23 19:33N 37°57' E 023°35'0 0.1
2015-Jan-23 18:33N 37°57' E 023°35'0 0.0
2015-Jan-23 17:33N 37°57' E 023°35'0 0.0
2015-Jan-23 16:33N 37°57' E 023°35'0 0.1
2015-Jan-23 15:33N 37°57' E 023°35'0 0.0
2015-Jan-23 14:33N 37°57' E 023°35'0 0.0
2015-Jan-23 13:33N 37°57' E 023°35'0 0.0
2015-Jan-23 12:33N 37°57' E 023°35'0 0.0
2015-Jan-23 11:33N 37°57' E 023°35'0 0.0
2015-Jan-23 10:33N 37°57' E 023°35'0 0.0
2015-Jan-23 09:33N 37°57' E 023°35'0 0.0
2015-Jan-23 08:33N 37°57' E 023°35'0 0.0
2015-Jan-23 07:33N 37°57' E 023°35'0 0.0
2015-Jan-23 06:33N 37°57' E 023°35'0 0.0
2015-Jan-23 05:34N 37°57' E 023°35'0 0.0
2015-Jan-23 04:33N 37°57' E 023°35'0 0.0
2015-Jan-23 03:33N 37°57' E 023°35'0 0.1
2015-Jan-23 02:33N 37°57' E 023°34'7 6.8
2015-Jan-23 01:33N 37°51' E 023°31'1 1.0
2015-Jan-23 00:33N 37°50' E 023°31'0 0.0
2015-Jan-22 23:33N 37°50' E 023°31'1 1.2
2015-Jan-22 22:33N 37°51' E 023°29'1 1.0
2015-Jan-22 21:33N 37°50' E 023°30'0 0.2
2015-Jan-22 20:33N 37°50' E 023°31'0 0.2
2015-Jan-22 19:33N 37°50' E 023°31'0 0.1
2015-Jan-22 18:33N 37°50' E 023°31'8 7.5
2015-Jan-22 17:33N 37°57' E 023°35'1 0.5
2015-Jan-22 16:33N 37°57' E 023°35'0 0.0
2015-Jan-22 15:33N 37°57' E 023°34'0 0.0
2015-Jan-22 14:33N 37°57' E 023°35'0 0.0
2015-Jan-22 13:33N 37°57' E 023°35'0 0.0
2015-Jan-22 12:33N 37°57' E 023°35'0 0.0
2015-Jan-22 11:33N 37°57' E 023°35'0 0.0
2015-Jan-22 10:33N 37°57' E 023°35'0 0.0
2015-Jan-22 09:33N 37°57' E 023°35'0 0.0
2015-Jan-22 08:33N 37°57' E 023°35'5 4.9
2015-Jan-22 07:33N 37°53' E 023°31'10 8.8
2015-Jan-22 06:28N 37°53' E 023°19'0 0.0
2015-Jan-21 11:06N 37°53' E 023°19'610.5
2015-Jan-21 10:33N 37°52' E 023°26'9 9.3
2015-Jan-21 09:33N 37°57' E 023°36'0 0.2
2015-Jan-21 08:33N 37°57' E 023°36'0 0.0
2015-Jan-21 07:33N 37°57' E 023°36'1 0.8
2015-Jan-21 06:33N 37°57' E 023°35'0 0.1
2015-Jan-21 05:33N 37°57' E 023°35'0 0.0
2015-Jan-21 04:33N 37°57' E 023°35'0 0.0
2015-Jan-21 03:33N 37°57' E 023°35'0 0.0
2015-Jan-21 02:33N 37°57' E 023°35'0 0.0
2015-Jan-21 01:33N 37°57' E 023°35'0 0.0
2015-Jan-21 00:33N 37°57' E 023°35'0 0.0
2015-Jan-20 23:33N 37°57' E 023°35'0 0.0
2015-Jan-20 22:33N 37°57' E 023°35'0 0.0
2015-Jan-20 21:33N 37°57' E 023°35'0 0.0
2015-Jan-20 20:33N 37°57' E 023°35'0 0.0
2015-Jan-20 19:33N 37°57' E 023°35'0 0.0
2015-Jan-20 18:33N 37°57' E 023°35'0 0.5
2015-Jan-20 17:33N 37°57' E 023°35'0 0.0
2015-Jan-20 16:33N 37°57' E 023°35'0 0.1
2015-Jan-20 15:33N 37°57' E 023°35'0 0.1
2015-Jan-20 14:33N 37°57' E 023°35'0 0.0
2015-Jan-20 13:33N 37°57' E 023°35'0 0.0
2015-Jan-20 12:33N 37°57' E 023°35'0 0.0
2015-Jan-20 11:33N 37°57' E 023°35'0 0.0
2015-Jan-20 10:33N 37°57' E 023°35'0 0.0
2015-Jan-20 09:33N 37°57' E 023°35'0 0.0
2015-Jan-20 08:33N 37°57' E 023°35'0 0.0
2015-Jan-20 07:33N 37°57' E 023°35'0 0.3
2015-Jan-20 06:33N 37°57' E 023°35'0 0.4
2015-Jan-20 05:33N 37°57' E 023°35'0 0.0
2015-Jan-20 04:33N 37°57' E 023°35'0 0.0
2015-Jan-20 03:33N 37°57' E 023°35'0 0.0
2015-Jan-20 02:33N 37°57' E 023°35'0 0.0
2015-Jan-20 01:33N 37°57' E 023°35'0 0.0
2015-Jan-20 00:34N 37°57' E 023°35'0 0.0
2015-Jan-19 23:33N 37°57' E 023°35'0 0.0
2015-Jan-19 22:33N 37°57' E 023°35'0 0.0
2015-Jan-19 21:33N 37°57' E 023°35'0 0.0
2015-Jan-19 20:33N 37°57' E 023°35'0 0.0
2015-Jan-19 19:33N 37°57' E 023°35'0 0.0
2015-Jan-19 18:33N 37°57' E 023°35'0 0.0
2015-Jan-19 17:33N 37°57' E 023°35'0 0.0
2015-Jan-19 16:33N 37°57' E 023°35'0 0.0
2015-Jan-19 15:33N 37°57' E 023°35'0 0.0
2015-Jan-19 14:33N 37°57' E 023°35'0 0.0
2015-Jan-19 13:33N 37°57' E 023°35'0 0.0
2015-Jan-19 12:33N 37°57' E 023°35'0 0.0
2015-Jan-19 11:33N 37°57' E 023°35'2 2.2
2015-Jan-19 10:33N 37°55' E 023°34'5 4.7
2015-Jan-19 09:33N 37°52' E 023°30'0 0.0
2015-Jan-19 08:33N 37°52' E 023°30'0 0.0
2015-Jan-19 07:33N 37°52' E 023°30'0 0.4
2015-Jan-19 06:33N 37°52' E 023°30'2 1.5
2015-Jan-19 05:33N 37°51' E 023°31'0 0.0
2015-Jan-19 04:32N 37°51' E 023°31'0 0.0
2015-Jan-19 03:33N 37°51' E 023°31'0 0.0
2015-Jan-19 02:28N 37°51' E 023°31'0 0.0
2015-Jan-19 01:31N 37°51' E 023°31'0 0.0
2015-Jan-18 23:31N 37°51' E 023°31'0 0.4
2015-Jan-18 22:33N 37°51' E 023°31'7 6.8
2015-Jan-18 21:33N 37°57' E 023°35'0 0.1
2015-Jan-18 20:32N 37°57' E 023°35'0 0.0
2015-Jan-18 19:28N 37°57' E 023°35'0 0.0
2015-Jan-18 18:30N 37°57' E 023°35'0 0.0
2015-Jan-18 17:33N 37°57' E 023°35'0 0.0
2015-Jan-18 16:32N 37°57' E 023°35'0 0.0
2015-Jan-18 15:33N 37°57' E 023°35'0 0.0
2015-Jan-18 14:33N 37°57' E 023°35'0 0.0
2015-Jan-18 13:33N 37°57' E 023°35'0 0.0
2015-Jan-18 12:33N 37°57' E 023°35'0 0.0
2015-Jan-18 11:32N 37°57' E 023°35'0 0.0
2015-Jan-18 10:31N 37°57' E 023°35'0 0.0
2015-Jan-18 09:32N 37°57' E 023°35'0 0.0
2015-Jan-18 08:33N 37°57' E 023°35'0 0.0
2015-Jan-18 07:33N 37°57' E 023°35'0 0.0
2015-Jan-18 06:28N 37°57' E 023°35'0 0.0
2015-Jan-18 05:28N 37°57' E 023°35'0 0.0
2015-Jan-18 04:33N 37°57' E 023°35'0 0.0
2015-Jan-18 03:33N 37°57' E 023°35'0 0.0
2015-Jan-18 02:33N 37°57' E 023°35'0 0.0
2015-Jan-18 01:33N 37°57' E 023°35'0 0.0
2015-Jan-18 00:33N 37°57' E 023°35'0 0.0
2015-Jan-17 23:33N 37°57' E 023°35'0 0.0
2015-Jan-17 22:33N 37°57' E 023°35'0 0.0
2015-Jan-17 21:33N 37°57' E 023°35'0 0.0
2015-Jan-17 20:33N 37°57' E 023°35'0 0.0
2015-Jan-17 19:33N 37°57' E 023°35'0 0.0
2015-Jan-17 18:33N 37°57' E 023°35'0 0.0
2015-Jan-17 17:33N 37°57' E 023°35'0 0.0
2015-Jan-17 16:33N 37°57' E 023°35'0 0.0
2015-Jan-17 15:33N 37°57' E 023°35'0 0.0
2015-Jan-17 14:33N 37°57' E 023°35'0 0.0
2015-Jan-17 13:33N 37°57' E 023°35'0 0.0
2015-Jan-17 12:33N 37°57' E 023°35'0 0.0
2015-Jan-17 11:33N 37°57' E 023°35'  

Dump ship's entire track history